Time;durP1;ratioP1;P1;durP2;ratioP2;P2;SDS_P1;SDS_P2;PMS_P1;PMS_P2;Temp;Humidity;BMP_temperature;BMP_pressure;BME280_temperature;BME280_humidity;BME280_pressure;Samples;Min_cycle;Max_cycle;Signal;HPM_P1;HPM_P2
2023/05/11 00:00:27;;;;;;;3.33;1.00;;;;;;;14.17;nan;99369.78;5017541;28;20256;-79
2023/05/11 00:02:53;;;;;;;6.13;3.50;;;;;;;14.16;nan;99367.28;5019876;28;20255;-78
2023/05/11 00:05:18;;;;;;;2.30;1.30;;;;;;;14.19;nan;99374.94;5017033;28;20444;-79
2023/05/11 00:07:44;;;;;;;2.03;1.10;;;;;;;14.17;nan;99376.88;5010319;28;20872;-79
2023/05/11 00:10:09;;;;;;;1.53;1.00;;;;;;;14.16;nan;99367.28;5009659;28;20568;-76
2023/05/11 00:12:35;;;;;;;1.10;0.90;;;;;;;14.16;nan;99370.75;5008293;28;20217;-75
2023/05/11 00:15:01;;;;;;;1.63;0.90;;;;;;;14.14;nan;99363.91;5010052;28;20752;-77
2023/05/11 00:17:26;;;;;;;1.97;0.97;;;;;;;14.10;nan;99362.50;5010910;28;20219;-78
2023/05/11 00:19:51;;;;;;;1.67;1.10;;;;;;;14.11;nan;99359.72;5011473;28;20639;-76
2023/05/11 00:22:17;;;;;;;0.80;0.80;;;;;;;14.10;nan;99363.34;5011857;28;20231;-78
2023/05/11 00:24:42;;;;;;;1.20;1.10;;;;;;;14.10;nan;99367.78;5012640;28;20228;-76
2023/05/11 00:27:07;;;;;;;0.97;0.80;;;;;;;14.11;nan;99364.16;5012461;28;20235;-79
2023/05/11 00:29:33;;;;;;;0.80;0.80;;;;;;;14.10;nan;99357.22;5012296;28;20610;-76
2023/05/11 00:31:58;;;;;;;1.50;1.17;;;;;;;14.10;nan;99370.44;4992892;28;20208;-76
2023/05/11 00:34:24;;;;;;;2.17;1.20;;;;;;;14.07;nan;99360.97;5012013;28;20271;-77
2023/05/11 00:36:52;;;;;;;1.35;1.17;;;;;;;14.07;nan;99363.59;4995596;28;20207;-77
2023/05/11 00:39:17;;;;;;;1.83;0.90;;;;;;;14.08;nan;99365.25;5014310;28;20922;-77
2023/05/11 00:41:43;;;;;;;1.67;0.80;;;;;;;14.09;nan;99366.94;5015177;28;20255;-78
2023/05/11 00:44:08;;;;;;;0.93;0.93;;;;;;;14.12;nan;99365.84;5014016;28;20221;-75
2023/05/11 00:46:34;;;;;;;2.83;1.00;;;;;;;14.13;nan;99360.44;5015233;28;20223;-79
2023/05/11 00:48:59;;;;;;;1.23;0.90;;;;;;;14.15;nan;99362.97;4998720;28;20313;-78
2023/05/11 00:51:26;;;;;;;2.47;1.10;;;;;;;14.19;nan;99358.25;5014453;28;20204;-79
2023/05/11 00:53:52;;;;;;;1.85;1.00;;;;;;;14.22;nan;99353.56;5005887;28;20207;-78
2023/05/11 00:56:18;;;;;;;2.05;1.20;;;;;;;14.27;nan;99347.91;5027839;28;20231;-76
2023/05/11 00:58:44;;;;;;;1.20;0.90;;;;;;;14.25;nan;99348.00;5046166;28;20218;-79
2023/05/11 01:01:10;;;;;;;2.07;1.20;;;;;;;14.26;nan;99346.22;5028505;28;20220;-78
2023/05/11 01:03:36;;;;;;;1.20;1.10;;;;;;;14.25;nan;99350.66;5046411;28;20886;-77
2023/05/11 01:06:10;;;;;;;1.40;1.30;;;;;;;14.25;nan;99348.00;5045669;28;20214;-77
2023/05/11 01:08:40;;;;;;;1.17;0.98;;;;;;;14.23;nan;99349.09;5028430;28;20215;-79
2023/05/11 01:11:29;;;;;;;1.83;1.20;;;;;;;14.19;nan;99339.78;5026724;28;20211;-77
2023/05/11 01:14:16;;;;;;;1.20;1.10;;;;;;;14.16;nan;99348.78;5043712;28;20211;-80
2023/05/11 01:16:46;;;;;;;1.65;0.90;;;;;;;14.16;nan;99351.44;5025705;28;20257;-80
2023/05/11 01:19:43;;;;;;;6.18;1.67;;;;;;;14.17;nan;99353.09;5026883;28;20207;-79
2023/05/11 01:22:55;;;;;;;4.43;1.20;;;;;;;14.15;nan;99355.03;5028087;28;20291;-79
2023/05/11 01:25:31;;;;;;;1.55;1.00;;;;;;;14.15;nan;99355.88;5031969;28;20581;-80
2023/05/11 01:28:21;;;;;;;1.33;0.95;;;;;;;14.16;nan;99356.72;5034440;28;20224;-78
2023/05/11 01:30:50;;;;;;;1.13;1.02;;;;;;;14.14;nan;99346.25;5037200;28;20223;-80
2023/05/11 01:33:31;;;;;;;1.50;1.10;;;;;;;14.16;nan;99351.44;5054329;28;20204;-77
2023/05/11 01:36:03;;;;;;;1.40;1.20;;;;;;;14.19;nan;99348.53;5060979;28;20434;-78
2023/05/11 01:38:33;;;;;;;1.00;0.90;;;;;;;14.18;nan;99344.22;5062988;28;20627;-79
2023/05/11 01:41:01;;;;;;;1.10;1.00;;;;;;;14.17;nan;99343.34;5043613;28;20232;-77
2023/05/11 01:43:31;;;;;;;1.30;1.20;;;;;;;14.15;nan;99350.59;5050892;28;20256;-80
2023/05/11 01:45:59;;;;;;;1.90;1.10;;;;;;;14.13;nan;99349.88;5047129;28;20221;-79
2023/05/11 01:48:29;;;;;;;3.25;1.40;;;;;;;14.09;nan;99350.25;5046919;28;20218;-80
2023/05/11 01:51:00;;;;;;;1.60;1.27;;;;;;;14.05;nan;99354.13;5046450;28;20227;-79
2023/05/11 01:53:28;;;;;;;1.77;1.10;;;;;;;14.03;nan;99353.41;5027323;28;20202;-77
2023/05/11 01:55:57;;;;;;;1.45;1.35;;;;;;;14.02;nan;99357.84;5091428;22;20251;-82
2023/05/11 01:58:24;;;;;;;1.05;0.95;;;;;;;14.00;nan;99349.22;5017641;28;20218;-82
2023/05/11 02:00:52;;;;;;;1.75;1.10;;;;;;;13.97;nan;99353.91;5045794;28;20219;-82
2023/05/11 02:03:19;;;;;;;1.80;1.05;;;;;;;13.91;nan;99358.72;5052192;28;20657;-83
2023/05/11 02:05:47;;;;;;;2.15;1.17;;;;;;;13.91;nan;99352.63;5050060;28;20495;-83
2023/05/11 02:08:13;;;;;;;2.35;0.90;;;;;;;13.92;nan;99356.91;5032167;28;20604;-83
2023/05/11 02:10:44;;;;;;;1.88;1.15;;;;;;;13.91;nan;99355.25;5042907;28;20202;-83
2023/05/11 02:13:16;;;;;;;2.75;1.02;;;;;;;13.89;nan;99350.09;5064278;28;20348;-84
2023/05/11 02:15:42;;;;;;;1.10;1.00;;;;;;;13.87;nan;99353.81;5063629;28;20292;-83
2023/05/11 02:18:14;;;;;;;1.53;1.10;;;;;;;13.83;nan;99350.59;5036272;28;20212;-83
2023/05/11 02:20:46;;;;;;;3.65;1.23;;;;;;;13.79;nan;99359.72;5042132;28;20896;-83
2023/05/11 02:23:12;;;;;;;1.17;0.88;;;;;;;13.75;nan;99355.66;5040286;28;20205;-82
2023/05/11 02:25:42;;;;;;;1.60;1.50;;;;;;;13.70;nan;99360.47;5043081;28;20218;-82
2023/05/11 02:28:08;;;;;;;6.30;2.03;;;;;;;13.68;nan;99346.53;5044186;28;20246;-82
2023/05/11 02:30:45;;;;;;;3.77;1.93;;;;;;;13.66;nan;99359.00;5044680;28;20211;-82
2023/05/11 02:33:18;;;;;;;2.80;2.47;;;;;;;13.65;nan;99360.81;5062888;28;20447;-82
2023/05/11 02:35:45;;;;;;;5.60;2.93;;;;;;;13.69;nan;99356.13;5036680;28;20431;-82
2023/05/11 02:38:13;;;;;;;3.13;2.00;;;;;;;13.68;nan;99350.00;5036491;28;20477;-83
2023/05/11 02:40:44;;;;;;;2.65;1.80;;;;;;;13.68;nan;99347.38;5056752;28;20203;-82
2023/05/11 02:43:14;;;;;;;1.48;1.38;;;;;;;13.67;nan;99350.16;5034722;28;20203;-83
2023/05/11 02:45:50;;;;;;;2.35;1.50;;;;;;;13.66;nan;99345.81;5036576;28;20344;-82
2023/05/11 02:48:21;;;;;;;1.65;1.55;;;;;;;13.66;nan;99348.47;5035914;28;20242;-82
2023/05/11 02:50:51;;;;;;;2.05;1.60;;;;;;;13.65;nan;99339.72;5038192;28;20207;-82
2023/05/11 02:53:18;;;;;;;3.75;2.58;;;;;;;13.64;nan;99350.41;5036337;28;20234;-81
2023/05/11 02:55:45;;;;;;;2.55;1.90;;;;;;;13.61;nan;99345.34;5036350;28;20243;-81
2023/05/11 02:58:11;;;;;;;4.45;1.90;;;;;;;13.60;nan;99346.31;5035616;28;20727;-82
2023/05/11 03:00:38;;;;;;;2.35;1.85;;;;;;;13.58;nan;99345.59;5037755;28;20424;-82
2023/05/11 03:03:04;;;;;;;2.83;2.00;;;;;;;13.58;nan;99345.59;5056103;28;20434;-82
2023/05/11 03:05:29;;;;;;;2.80;1.70;;;;;;;13.60;nan;99348.97;5044393;28;20434;-82
2023/05/11 03:07:58;;;;;;;2.53;1.20;;;;;;;13.58;nan;99346.44;5056660;28;20212;-81
2023/05/11 03:10:26;;;;;;;2.08;1.33;;;;;;;13.56;nan;99344.91;5038309;28;20344;-81
2023/05/11 03:12:52;;;;;;;1.75;1.25;;;;;;;13.52;nan;99341.66;5060879;28;20280;-81
2023/05/11 03:15:20;;;;;;;3.70;1.30;;;;;;;13.50;nan;99339.16;5035894;28;20209;-81
2023/05/11 03:17:49;;;;;;;2.17;1.40;;;;;;;13.52;nan;99340.81;5036856;28;20209;-81
2023/05/11 03:20:16;;;;;;;1.70;1.40;;;;;;;13.50;nan;99333.88;5035524;28;20703;-80
2023/05/11 03:22:43;;;;;;;3.08;1.40;;;;;;;13.49;nan;99329.53;5055343;28;20206;-81
2023/05/11 03:25:11;;;;;;;1.98;1.15;;;;;;;13.47;nan;99333.25;5040255;28;20224;-81
2023/05/11 03:27:39;;;;;;;2.85;1.25;;;;;;;13.46;nan;99328.97;5040121;28;20223;-80
2023/05/11 03:30:10;;;;;;;2.05;1.27;;;;;;;13.44;nan;99328.22;5041177;28;20238;-80
2023/05/11 03:32:41;;;;;;;2.05;1.30;;;;;;;13.44;nan;99329.06;5038881;28;20358;-80
2023/05/11 03:35:07;;;;;;;2.80;1.33;;;;;;;13.42;nan;99323.09;5039113;28;20406;-81
2023/05/11 03:37:36;;;;;;;2.35;1.55;;;;;;;13.39;nan;99320.69;5057089;28;20327;-81
2023/05/11 03:40:06;;;;;;;2.25;1.25;;;;;;;13.37;nan;99322.63;5042893;28;21207;-80
2023/05/11 03:42:42;;;;;;;2.33;1.08;;;;;;;13.37;nan;99325.25;5033850;28;20250;-80
2023/05/11 03:45:45;;;;;;;1.88;1.40;;;;;;;13.37;nan;99320.00;5060638;28;20213;-81
2023/05/11 03:48:33;;;;;;;5.60;1.83;;;;;;;13.41;nan;99325.84;5041106;28;20229;-80
2023/05/11 03:51:00;;;;;;;1.60;1.35;;;;;;;13.43;nan;99324.75;5060157;28;20290;-82
2023/05/11 03:53:32;;;;;;;1.55;1.20;;;;;;;13.45;nan;99325.50;5062909;28;20222;-81
2023/05/11 03:56:03;;;;;;;1.20;1.10;;;;;;;13.46;nan;99318.41;5064890;28;20235;-81
2023/05/11 03:58:30;;;;;;;2.28;1.13;;;;;;;13.42;nan;99325.75;5061975;28;20298;-81
2023/05/11 04:01:08;;;;;;;2.42;1.40;;;;;;;13.41;nan;99316.13;5040089;28;20214;-81
2023/05/11 04:03:56;;;;;;;2.90;1.38;;;;;;;13.41;nan;99315.28;5061995;28;20207;-82
2023/05/11 04:06:26;;;;;;;4.00;1.40;;;;;;;13.43;nan;99316.84;5041335;28;20438;-82
2023/05/11 04:09:09;;;;;;;1.75;1.30;;;;;;;13.44;nan;99317.69;5041544;28;20392;-80
2023/05/11 04:11:38;;;;;;;1.48;1.33;;;;;;;13.42;nan;99323.09;5037086;28;20210;-80
2023/05/11 04:14:04;;;;;;;3.47;1.50;;;;;;;13.43;nan;99316.84;5052933;28;20221;-80
2023/05/11 04:16:29;;;;;;;2.50;1.63;;;;;;;13.43;nan;99322.13;5036504;28;20199;-80
2023/05/11 04:18:55;;;;;;;2.50;1.10;;;;;;;13.43;nan;99311.56;5061023;28;21056;-80
2023/05/11 04:21:20;;;;;;;1.47;1.10;;;;;;;13.44;nan;99317.69;5061332;28;20210;-80
2023/05/11 04:23:46;;;;;;;2.67;1.40;;;;;;;13.43;nan;99318.66;5020644;28;20299;-80
2023/05/11 04:26:11;;;;;;;3.00;1.20;;;;;;;13.42;nan;99319.59;5058938;28;20231;-80
2023/05/11 04:28:37;;;;;;;1.70;1.30;;;;;;;13.42;nan;99322.25;5060045;28;20341;-80
2023/05/11 04:31:02;;;;;;;1.40;1.20;;;;;;;13.42;nan;99317.81;5064431;28;20321;-80
2023/05/11 04:33:28;;;;;;;1.53;1.43;;;;;;;13.41;nan;99324.03;5048568;28;20352;-80
2023/05/11 04:35:54;;;;;;;2.88;1.75;;;;;;;13.43;nan;99324.75;5046179;28;20441;-81
2023/05/11 04:38:21;;;;;;;4.13;1.50;;;;;;;13.43;nan;99326.56;5046553;28;20217;-80
2023/05/11 04:40:47;;;;;;;3.38;1.30;;;;;;;13.44;nan;99326.44;5042252;28;20218;-81
2023/05/11 04:43:13;;;;;;;6.72;2.22;;;;;;;13.44;nan;99325.59;5041645;28;20207;-81
2023/05/11 04:45:39;;;;;;;2.60;1.30;;;;;;;13.46;nan;99328.97;5035320;28;20640;-81
2023/05/11 04:48:05;;;;;;;2.40;2.20;;;;;;;13.48;nan;99325.25;5058384;28;20318;-81
2023/05/11 04:50:31;;;;;;;2.55;1.50;;;;;;;13.50;nan;99331.25;5058090;28;20280;-81
2023/05/11 04:52:57;;;;;;;1.50;1.25;;;;;;;13.52;nan;99327.63;5038079;28;20203;-81
2023/05/11 04:55:22;;;;;;;1.90;1.20;;;;;;;13.51;nan;99329.44;5057705;28;20208;-81
2023/05/11 04:57:49;;;;;;;2.20;1.85;;;;;;;13.52;nan;99335.53;5038532;28;20212;-81
2023/05/11 05:00:15;;;;;;;4.85;3.65;;;;;;;13.53;nan;99329.28;5039542;28;20219;-81
2023/05/11 05:02:41;;;;;;;2.23;1.47;;;;;;;13.55;nan;99335.28;5033368;28;20218;-81
2023/05/11 05:05:06;;;;;;;2.30;2.10;;;;;;;13.59;nan;99345.50;5057087;28;20530;-81
2023/05/11 05:07:32;;;;;;;3.70;2.50;;;;;;;13.61;nan;99348.00;5034385;28;20214;-81
2023/05/11 05:09:57;;;;;;;2.33;1.53;;;;;;;13.64;nan;99360.97;5034633;28;20281;-81
2023/05/11 05:12:23;;;;;;;4.77;2.20;;;;;;;13.62;nan;99355.78;5038164;28;20216;-81
2023/05/11 05:14:48;;;;;;;3.30;1.50;;;;;;;13.61;nan;99348.84;5055121;28;20642;-81
2023/05/11 05:17:13;;;;;;;1.97;1.33;;;;;;;13.63;nan;99354.81;5037836;28;20229;-81
2023/05/11 05:19:39;;;;;;;1.60;1.27;;;;;;;13.63;nan;99346.91;5059930;28;20211;-81
2023/05/11 05:22:05;;;;;;;2.10;1.50;;;;;;;13.65;nan;99349.44;5037179;28;21092;-81
2023/05/11 05:24:30;;;;;;;2.30;1.60;;;;;;;13.65;nan;99354.72;5032981;28;20211;-81
2023/05/11 05:26:56;;;;;;;3.57;1.53;;;;;;;13.65;nan;99350.25;5037739;28;20216;-81
2023/05/11 05:29:21;;;;;;;2.43;1.70;;;;;;;13.65;nan;99346.78;5034360;28;20833;-81
2023/05/11 05:31:47;;;;;;;1.93;1.73;;;;;;;13.66;nan;99349.31;5035850;28;20213;-82
2023/05/11 05:34:13;;;;;;;4.00;1.57;;;;;;;13.65;nan;99352.91;5055325;28;20216;-81
2023/05/11 05:36:38;;;;;;;2.60;2.10;;;;;;;13.65;nan;99357.34;5037628;28;20442;-81
2023/05/11 05:39:08;;;;;;;2.73;1.80;;;;;;;13.65;nan;99352.06;5036494;28;20215;-81
2023/05/11 05:41:35;;;;;;;2.50;2.17;;;;;;;13.64;nan;99353.03;5036996;28;20231;-82
2023/05/11 05:44:01;;;;;;;5.57;1.88;;;;;;;13.65;nan;99358.19;5035859;28;20869;-83
2023/05/11 05:46:27;;;;;;;1.67;1.40;;;;;;;13.66;nan;99359.88;5039801;28;20257;-84
2023/05/11 05:48:53;;;;;;;2.07;1.87;;;;;;;13.68;nan;99354.47;5039936;28;20289;-84
2023/05/11 05:51:18;;;;;;;4.00;2.37;;;;;;;13.68;nan;99357.09;5041360;28;20378;-84
2023/05/11 05:53:44;;;;;;;3.50;2.10;;;;;;;13.69;nan;99354.34;5040156;28;20229;-83
2023/05/11 05:56:09;;;;;;;3.73;2.67;;;;;;;13.69;nan;99356.13;5058777;28;20234;-85
2023/05/11 05:58:35;;;;;;;4.17;3.40;;;;;;;13.70;nan;99360.47;5041790;28;20706;-85
2023/05/11 06:01:00;;;;;;;4.20;2.23;;;;;;;13.71;nan;99352.41;5041396;28;20273;-83
2023/05/11 06:03:26;;;;;;;3.43;2.10;;;;;;;13.72;nan;99358.53;5043126;28;20266;-84
2023/05/11 06:05:51;;;;;;;4.17;2.63;;;;;;;13.72;nan;99359.38;5045397;28;20247;-85
2023/05/11 06:08:17;;;;;;;3.83;1.97;;;;;;;13.69;nan;99354.34;5044268;28;20225;-84
2023/05/11 06:10:42;;;;;;;2.67;1.67;;;;;;;13.70;nan;99360.47;5063207;28;20558;-83
2023/05/11 06:13:09;;;;;;;3.50;2.22;;;;;;;13.70;nan;99349.91;5045988;28;20263;-84
2023/05/11 06:15:36;;;;;;;3.17;2.45;;;;;;;13.72;nan;99358.53;5044746;28;20231;-84
2023/05/11 06:18:08;;;;;;;5.20;2.55;;;;;;;13.73;nan;99352.28;5044906;28;20223;-84
2023/05/11 06:20:34;;;;;;;3.40;2.07;;;;;;;13.75;nan;99355.66;5046332;28;20209;-83
2023/05/11 06:23:00;;;;;;;3.23;2.70;;;;;;;13.74;nan;99356.59;5046081;28;20986;-84
2023/05/11 06:25:26;;;;;;;6.93;4.53;;;;;;;13.75;nan;99353.00;5063407;28;20462;-84
2023/05/11 06:27:52;;;;;;;6.03;4.40;;;;;;;13.78;nan;99352.75;5044668;28;20345;-84
2023/05/11 06:30:18;;;;;;;4.18;2.88;;;;;;;13.82;nan;99354.19;5047116;28;20649;-85
2023/05/11 06:32:46;;;;;;;3.85;2.97;;;;;;;13.85;nan;99353.94;5042882;28;20191;-85
2023/05/11 06:35:13;;;;;;;7.05;3.15;;;;;;;13.90;nan;99349.09;5046105;28;20923;-84
2023/05/11 06:37:39;;;;;;;3.93;2.40;;;;;;;13.93;nan;99354.16;5044724;28;20210;-84
2023/05/11 06:40:05;;;;;;;4.50;1.90;;;;;;;13.98;nan;99358.22;5046235;28;20215;-84
2023/05/11 06:42:33;;;;;;;6.00;2.90;;;;;;;14.01;nan;99355.31;5031559;28;20215;-84
2023/05/11 06:45:08;;;;;;;3.00;2.30;;;;;;;14.04;nan;99352.44;5044031;28;20211;-84
2023/05/11 06:47:34;;;;;;;4.68;4.18;;;;;;;14.07;nan;99352.16;5062917;28;20231;-84
2023/05/11 06:49:59;;;;;;;10.17;3.90;;;;;;;14.10;nan;99351.94;5045063;28;20219;-84
2023/05/11 06:52:25;;;;;;;4.50;3.87;;;;;;;14.13;nan;99357.81;5060107;28;20239;-84
2023/05/11 06:54:50;;;;;;;5.50;3.70;;;;;;;14.20;nan;99352.84;5042667;28;20218;-84
2023/05/11 06:57:16;;;;;;;4.03;2.57;;;;;;;14.27;nan;99343.44;5057435;28;20287;-83
2023/05/11 06:59:42;;;;;;;6.07;3.33;;;;;;;14.35;nan;99345.44;5038218;28;20316;-83
2023/05/11 07:02:08;;;;;;;5.32;2.75;;;;;;;14.44;nan;99339.38;5057782;28;20262;-83
2023/05/11 07:04:33;;;;;;;2.90;1.87;;;;;;;14.52;nan;99336.97;5055872;28;20196;-82
2023/05/11 07:06:59;;;;;;;3.33;2.13;;;;;;;14.61;nan;99348.59;5056845;28;20245;-82
2023/05/11 07:09:25;;;;;;;3.33;1.80;;;;;;;14.71;nan;99341.53;5057450;28;20292;-81
2023/05/11 07:11:51;;;;;;;2.05;1.58;;;;;;;14.83;nan;99345.78;5045436;28;20250;-82
2023/05/11 07:14:17;;;;;;;3.00;2.67;;;;;;;14.92;nan;99352.09;5057641;28;20283;-82
2023/05/11 07:16:43;;;;;;;2.90;2.07;;;;;;;15.00;nan;99346.16;5056518;28;20331;-81
2023/05/11 07:19:08;;;;;;;2.30;1.87;;;;;;;15.08;nan;99354.25;5057954;28;20469;-81
2023/05/11 07:21:35;;;;;;;2.00;1.67;;;;;;;15.07;nan;99342.00;5055818;28;20700;-81
2023/05/11 07:24:00;;;;;;;3.33;1.90;;;;;;;15.11;nan;99348.69;5056671;28;20541;-81
2023/05/11 07:26:26;;;;;;;2.00;1.90;;;;;;;15.14;nan;99343.13;5055105;28;20683;-81
2023/05/11 07:28:52;;;;;;;1.85;1.45;;;;;;;15.18;nan;99352.50;5055075;28;20292;-81
2023/05/11 07:31:17;;;;;;;3.10;1.60;;;;;;;15.16;nan;99346.50;5056743;28;20588;-81
2023/05/11 07:33:42;;;;;;;2.10;1.90;;;;;;;15.18;nan;99347.19;5056484;28;20212;-81
2023/05/11 07:36:08;;;;;;;3.40;2.17;;;;;;;15.25;nan;99348.31;5053271;28;20565;-81
2023/05/11 07:38:33;;;;;;;3.90;2.47;;;;;;;15.31;nan;99344.34;5056120;28;20666;-81
2023/05/11 07:40:59;;;;;;;2.30;1.80;;;;;;;15.37;nan;99353.53;5055052;28;20264;-81
2023/05/11 07:43:24;;;;;;;2.10;1.30;;;;;;;15.43;nan;99342.41;5055769;28;20227;-81
2023/05/11 07:45:50;;;;;;;1.53;1.30;;;;;;;15.52;nan;99343.41;5055235;28;20224;-81
2023/05/11 07:48:16;;;;;;;2.00;1.60;;;;;;;15.61;nan;99339.97;5054228;28;20319;-81
2023/05/11 07:50:42;;;;;;;1.95;1.70;;;;;;;15.59;nan;99336.59;5055974;28;20207;-81
2023/05/11 07:53:08;;;;;;;2.00;1.80;;;;;;;15.47;nan;99338.50;5055490;28;20226;-81
2023/05/11 07:55:34;;;;;;;1.70;1.40;;;;;;;15.44;nan;99344.91;5055809;28;20473;-80
2023/05/11 07:57:59;;;;;;;3.17;1.47;;;;;;;15.44;nan;99338.78;5043316;28;20206;-80
2023/05/11 08:00:25;;;;;;;1.73;1.30;;;;;;;15.45;nan;99340.47;5062589;28;20246;-80
2023/05/11 08:02:51;;;;;;;2.67;1.60;;;;;;;15.57;nan;99342.03;5060473;28;20475;-80
2023/05/11 08:05:18;;;;;;;1.60;1.20;;;;;;;15.74;nan;99347.66;5057768;28;20336;-80
2023/05/11 08:07:44;;;;;;;4.20;1.98;;;;;;;15.91;nan;99347.81;5059584;28;20223;-80
2023/05/11 08:10:10;;;;;;;1.70;1.60;;;;;;;16.04;nan;99336.97;5060944;28;20206;-80
2023/05/11 08:12:36;;;;;;;2.17;1.37;;;;;;;16.16;nan;99335.00;5060634;28;20239;-80
2023/05/11 08:15:02;;;;;;;2.37;1.60;;;;;;;16.33;nan;99338.75;5058741;28;20407;-80
2023/05/11 08:17:29;;;;;;;6.07;2.08;;;;;;;16.49;nan;99344.31;5058899;28;21004;-80
2023/05/11 08:19:55;;;;;;;1.52;1.30;;;;;;;16.69;nan;99336.31;5060086;28;20229;-80
2023/05/11 08:22:20;;;;;;;3.20;1.77;;;;;;;16.85;nan;99335.75;5044248;28;20226;-80
2023/05/11 08:24:46;;;;;;;2.30;2.07;;;;;;;16.95;nan;99337.38;5057311;28;20223;-80
2023/05/11 08:27:11;;;;;;;2.27;1.87;;;;;;;17.06;nan;99330.22;5060258;28;20245;-80
2023/05/11 08:29:37;;;;;;;2.70;1.70;;;;;;;17.12;nan;99329.66;5058601;28;20204;-80
2023/05/11 08:32:02;;;;;;;1.80;1.60;;;;;;;17.16;nan;99331.88;5059742;28;20680;-80
2023/05/11 08:34:28;;;;;;;2.10;1.73;;;;;;;17.19;nan;99328.91;5059395;28;20487;-80
2023/05/11 08:36:54;;;;;;;1.73;1.60;;;;;;;17.20;nan;99325.31;5058664;28;20221;-80
2023/05/11 08:39:21;;;;;;;3.25;2.17;;;;;;;17.22;nan;99327.78;5059930;28;20272;-80
2023/05/11 08:41:49;;;;;;;2.65;1.63;;;;;;;17.23;nan;99332.97;5057924;28;20475;-80
2023/05/11 08:44:16;;;;;;;3.78;2.38;;;;;;;17.24;nan;99325.84;5060562;28;20229;-80
2023/05/11 08:46:45;;;;;;;3.78;1.80;;;;;;;17.24;nan;99321.34;5058361;28;20225;-80
2023/05/11 08:49:12;;;;;;;3.05;2.33;;;;;;;17.27;nan;99325.53;5057596;28;20209;-80
2023/05/11 08:51:37;;;;;;;2.88;1.48;;;;;;;17.25;nan;99322.19;5060730;28;20368;-80
2023/05/11 08:54:05;;;;;;;2.33;1.77;;;;;;;17.08;nan;99317.66;5058762;28;20390;-80
2023/05/11 08:56:31;;;;;;;2.22;1.63;;;;;;;16.73;nan;99321.81;5059131;28;20222;-80
2023/05/11 08:58:57;;;;;;;5.68;1.80;;;;;;;16.48;nan;99328.56;5060203;28;20214;-80
2023/05/11 09:01:27;;;;;;;2.67;1.77;;;;;;;16.49;nan;99324.94;5060072;28;20679;-80
2023/05/11 09:03:52;;;;;;;2.40;1.50;;;;;;;16.64;nan;99322.69;5059131;28;20850;-80
2023/05/11 09:06:19;;;;;;;3.03;1.90;;;;;;;16.84;nan;99320.81;5056689;28;20503;-80
2023/05/11 09:08:45;;;;;;;2.97;1.55;;;;;;;16.98;nan;99325.66;5059621;28;20235;-80
2023/05/11 09:11:10;;;;;;;1.83;1.40;;;;;;;17.15;nan;99322.25;5059108;28;20650;-80
2023/05/11 09:13:36;;;;;;;1.87;1.50;;;;;;;17.36;nan;99316.69;5057674;28;20219;-81
2023/05/11 09:16:02;;;;;;;3.40;1.47;;;;;;;17.57;nan;99323.56;5058329;28;20249;-80
2023/05/11 09:18:27;;;;;;;1.73;1.53;;;;;;;17.68;nan;99321.50;5058414;28;20423;-80
2023/05/11 09:20:53;;;;;;;1.83;1.73;;;;;;;17.79;nan;99317.84;5038949;28;20523;-80
2023/05/11 09:23:25;;;;;;;2.23;1.63;;;;;;;17.90;nan;99322.09;5059445;28;20217;-81
2023/05/11 09:25:50;;;;;;;2.33;1.40;;;;;;;17.91;nan;99313.16;5059057;28;20230;-80
2023/05/11 09:28:20;;;;;;;1.60;1.50;;;;;;;17.84;nan;99306.75;5040119;28;20480;-80
2023/05/11 09:30:45;;;;;;;2.58;1.90;;;;;;;17.81;nan;99317.69;5057942;28;20215;-80
2023/05/11 09:33:11;;;;;;;1.77;1.67;;;;;;;17.88;nan;99308.97;5058501;28;20220;-80
2023/05/11 09:35:36;;;;;;;3.03;1.97;;;;;;;17.81;nan;99299.94;5061452;28;20225;-80
2023/05/11 09:38:06;;;;;;;2.70;2.17;;;;;;;17.67;nan;99303.09;5061108;28;20225;-80
2023/05/11 09:40:36;;;;;;;2.40;1.75;;;;;;;17.67;nan;99303.91;5059707;28;20219;-80
2023/05/11 09:43:02;;;;;;;1.75;1.50;;;;;;;17.73;nan;99299.81;5059166;28;20223;-80
2023/05/11 09:45:42;;;;;;;2.07;1.63;;;;;;;17.79;nan;99303.72;5058071;28;20304;-80
2023/05/11 09:48:20;;;;;;;2.45;1.20;;;;;;;17.89;nan;99297.34;5058722;28;20482;-80
2023/05/11 09:50:47;;;;;;;1.60;1.50;;;;;;;18.00;nan;99300.75;5060285;28;20512;-80
2023/05/11 09:53:13;;;;;;;3.45;1.55;;;;;;;18.06;nan;99298.31;5059530;28;21124;-80
2023/05/11 09:55:49;;;;;;;2.43;1.40;;;;;;;18.07;nan;99299.19;5040522;28;20225;-80
2023/05/11 09:58:15;;;;;;;3.40;1.45;;;;;;;18.09;nan;99287.41;5058259;28;20460;-80
2023/05/11 10:00:49;;;;;;;2.13;1.50;;;;;;;18.08;nan;99295.50;5058137;28;20265;-80
2023/05/11 10:03:15;;;;;;;1.70;1.57;;;;;;;18.05;nan;99293.16;5058361;28;20273;-80
2023/05/11 10:05:54;;;;;;;2.27;1.70;;;;;;;17.97;nan;99293.09;5057175;28;22221;-80
2023/05/11 10:08:29;;;;;;;3.10;1.43;;;;;;;17.83;nan;99290.00;5040281;28;20213;-80
2023/05/11 10:10:56;;;;;;;3.10;1.90;;;;;;;17.72;nan;99292.84;5058110;28;20457;-80
2023/05/11 10:13:23;;;;;;;1.73;1.38;;;;;;;17.67;nan;99285.31;5040433;28;20466;-80
2023/05/11 10:15:53;;;;;;;1.60;1.50;;;;;;;17.63;nan;99291.06;5055500;28;20231;-80
2023/05/11 10:18:18;;;;;;;2.37;1.40;;;;;;;17.57;nan;99286.38;5058707;28;20836;-79
2023/05/11 10:20:44;;;;;;;2.50;1.67;;;;;;;17.50;nan;99287.94;5057773;28;20457;-80
2023/05/11 10:23:10;;;;;;;1.80;1.40;;;;;;;17.46;nan;99282.94;5057763;28;20525;-80
2023/05/11 10:25:36;;;;;;;1.97;1.60;;;;;;;17.45;nan;99291.06;5055988;28;20497;-80
2023/05/11 10:28:02;;;;;;;1.37;1.27;;;;;;;17.45;nan;99281.28;5058812;28;20997;-80
2023/05/11 10:30:28;;;;;;;1.07;0.97;;;;;;;17.44;nan;99278.75;5038588;28;20464;-80
2023/05/11 10:32:54;;;;;;;1.30;1.20;;;;;;;17.39;nan;99278.38;5060141;28;20282;-80
2023/05/11 10:35:20;;;;;;;2.42;1.65;;;;;;;17.35;nan;99275.19;5058850;28;20451;-80
2023/05/11 10:37:46;;;;;;;1.77;1.47;;;;;;;17.38;nan;99272.22;5061980;28;20701;-80
2023/05/11 10:40:12;;;;;;;1.60;1.50;;;;;;;17.42;nan;99273.63;5061306;28;20697;-80
2023/05/11 10:42:50;;;;;;;2.50;1.57;;;;;;;17.32;nan;99270.19;5042573;28;20466;-80
2023/05/11 10:45:28;;;;;;;1.83;1.40;;;;;;;17.24;nan;99268.25;5062468;28;20481;-80
2023/05/11 10:48:24;;;;;;;2.40;1.47;;;;;;;17.20;nan;99266.03;5061059;28;20488;-80
2023/05/11 10:51:11;;;;;;;2.20;1.60;;;;;;;17.14;nan;99266.66;5062918;28;20447;-80
2023/05/11 10:53:45;;;;;;;2.17;1.30;;;;;;;17.19;nan;99264.38;5064195;28;20216;-80
2023/05/11 10:56:40;;;;;;;1.55;1.45;;;;;;;17.29;nan;99257.22;5059885;28;20473;-80
2023/05/11 10:59:24;;;;;;;1.52;1.40;;;;;;;17.34;nan;99260.25;5060751;28;20235;-80
2023/05/11 11:01:51;;;;;;;2.28;1.30;;;;;;;17.36;nan;99255.63;5062028;28;20250;-80
2023/05/11 11:04:17;;;;;;;1.63;1.15;;;;;;;17.43;nan;99254.03;5061616;28;20217;-80
2023/05/11 11:06:43;;;;;;;1.70;1.48;;;;;;;17.46;nan;99251.06;5061497;28;20222;-80
2023/05/11 11:09:14;;;;;;;1.33;1.20;;;;;;;17.46;nan;99255.56;5060979;28;20307;-80
2023/05/11 11:11:46;;;;;;;1.50;1.30;;;;;;;17.48;nan;99249.13;5057964;28;20207;-80
2023/05/11 11:14:16;;;;;;;1.65;1.55;;;;;;;17.59;nan;99249.88;5060703;28;20745;-80
2023/05/11 11:17:30;;;;;;;1.35;1.25;;;;;;;17.68;nan;99244.47;5059825;28;20229;-80
2023/05/11 11:20:39;;;;;;;2.08;1.30;;;;;;;17.81;nan;99248.63;5045754;28;20333;-80
2023/05/11 11:23:04;;;;;;;1.63;1.48;;;;;;;17.99;nan;99245.97;5059078;28;20215;-81
2023/05/11 11:25:56;;;;;;;1.30;1.20;;;;;;;18.09;nan;99241.34;5041645;28;20483;-80
2023/05/11 11:28:21;;;;;;;1.60;1.27;;;;;;;18.16;nan;99241.59;5054977;28;20252;-80
2023/05/11 11:30:47;;;;;;;2.60;1.40;;;;;;;18.19;nan;99239.44;5062304;28;20472;-81
2023/05/11 11:33:12;;;;;;;2.60;1.70;;;;;;;18.30;nan;99241.84;5063549;28;20218;-81
2023/05/11 11:35:40;;;;;;;1.40;1.30;;;;;;;18.43;nan;99237.94;5059472;28;20249;-80
2023/05/11 11:38:08;;;;;;;2.53;1.50;;;;;;;18.55;nan;99226.91;5062009;28;20477;-80
2023/05/11 11:40:37;;;;;;;1.63;1.52;;;;;;;18.62;nan;99228.91;5067954;28;20222;-81
2023/05/11 11:43:16;;;;;;;1.40;1.27;;;;;;;18.68;nan;99220.28;5067726;28;20279;-81
2023/05/11 11:45:55;;;;;;;2.87;1.30;;;;;;;18.79;nan;99218.22;5049716;28;20465;-81
2023/05/11 11:48:35;;;;;;;3.17;1.30;;;;;;;18.95;nan;99219.25;5065888;28;20526;-80
2023/05/11 11:51:02;;;;;;;3.67;1.57;;;;;;;19.15;nan;99223.34;5067494;28;20657;-81
2023/05/11 11:53:40;;;;;;;1.50;1.30;;;;;;;19.32;nan;99210.06;5066792;28;20460;-81
2023/05/11 11:56:14;;;;;;;3.17;1.30;;;;;;;19.39;nan;99211.91;5067830;28;20807;-80
2023/05/11 11:58:39;;;;;;;1.43;1.33;;;;;;;19.43;nan;99207.91;5067705;28;20467;-81